Terminal Aerodrome Forecast
Issued by NWS Wilmington, NC

Current Version | Previous Version | Graphics & Text | Print | Product List | Glossary Off
Versions: 1 2 3 4 5 6 7 8 9 10 11 12 13

000
FTUS42 KILM 251100
TAFFLO
TAF
KFLO 251121Z 2512/2612 32006KT P6SM SCT250
     FM260000 24003KT P6SM SCT080
     FM260700 31005KT P6SM SCT060=

USA.gov is the U.S. government's official web portal to all federal, state and local government web resources and services.